Terminal Aerodrome Forecast
Issued by NWS

Home | Current Version | Previous Version | Text Only | Print | Product List | Glossary Off
Versions: 1 2 3 4 5 6 7 8 9 10 11 12 13 14 15 16 17 18 19 20 21 22 23 24 25

951
FTUS43 KTOP 272336
TAFFOE
TAF
KFOE 272336Z 2800/2824 14011KT P6SM VCTS SCT025CB BKN100
      TEMPO 2802/2804 2SM TSRA BR BKN022CB
     FM280800 14005KT P6SM SCT022 BKN100
     FM281500 21011KT P6SM SCT035=

USA.gov is the U.S. government's official web portal to all federal, state and local government web resources and services.